sensor_id;sensor_type;location;lat;lon;timestamp;pressure;altitude;pressure_sealevel;temperature;humidity
64602;BME280;51013;42.630;23.192;2022-10-29T00:00:48;93484.16;;;6.20;79.02
64602;BME280;51013;42.630;23.192;2022-10-29T00:03:15;93481.16;;;6.08;79.08
64602;BME280;51013;42.630;23.192;2022-10-29T00:05:42;93484.28;;;6.10;79.37
64602;BME280;51013;42.630;23.192;2022-10-29T00:08:08;93475.91;;;6.13;79.16
64602;BME280;51013;42.630;23.192;2022-10-29T00:10:35;93472.34;;;6.04;79.50
64602;BME280;51013;42.630;23.192;2022-10-29T00:13:02;93474.72;;;6.00;79.53
64602;BME280;51013;42.630;23.192;2022-10-29T00:15:30;93464.78;;;6.02;79.02
64602;BME280;51013;42.630;23.192;2022-10-29T00:17:57;93469.75;;;6.04;78.73
64602;BME280;51013;42.630;23.192;2022-10-29T00:20:24;93469.75;;;6.04;79.03
64602;BME280;51013;42.630;23.192;2022-10-29T00:22:52;93468.34;;;5.87;79.55
64602;BME280;51013;42.630;23.192;2022-10-29T00:25:18;93464.88;;;5.92;79.79
64602;BME280;51013;42.630;23.192;2022-10-29T00:27:45;93463.13;;;5.87;79.54
64602;BME280;51013;42.630;23.192;2022-10-29T00:30:12;93467.63;;;5.81;79.82
64602;BME280;51013;42.630;23.192;2022-10-29T00:32:40;93457.16;;;5.87;79.46
64602;BME280;51013;42.630;23.192;2022-10-29T00:35:07;93456.91;;;5.83;79.44
64602;BME280;51013;42.630;23.192;2022-10-29T00:37:34;93447.06;;;5.80;79.57
64602;BME280;51013;42.630;23.192;2022-10-29T00:40:00;93447.25;;;5.83;79.43
64602;BME280;51013;42.630;23.192;2022-10-29T00:42:28;93450.44;;;5.80;79.30
64602;BME280;51013;42.630;23.192;2022-10-29T00:44:55;93447.44;;;5.68;79.68
64602;BME280;51013;42.630;23.192;2022-10-29T00:47:22;93455.81;;;5.65;79.60
64602;BME280;51013;42.630;23.192;2022-10-29T00:49:53;93451.31;;;5.71;79.44
64602;BME280;51013;42.630;23.192;2022-10-29T00:52:22;93446.59;;;5.73;79.26
64602;BME280;51013;42.630;23.192;2022-10-29T00:54:51;93446.88;;;5.71;79.33
64602;BME280;51013;42.630;23.192;2022-10-29T00:57:19;93446.13;;;5.71;79.50
64602;BME280;51013;42.630;23.192;2022-10-29T00:59:48;93445.13;;;5.67;79.54
64602;BME280;51013;42.630;23.192;2022-10-29T01:02:15;93444.13;;;5.62;79.47
64602;BME280;51013;42.630;23.192;2022-10-29T01:04:42;93444.47;;;5.56;80.11
64602;BME280;51013;42.630;23.192;2022-10-29T01:07:10;93444.47;;;5.56;79.95
64602;BME280;51013;42.630;23.192;2022-10-29T01:09:37;93444.47;;;5.56;79.69
64602;BME280;51013;42.630;23.192;2022-10-29T01:12:08;93432.03;;;5.48;79.76
64602;BME280;51013;42.630;23.192;2022-10-29T01:14:39;93433.56;;;5.49;79.90
64602;BME280;51013;42.630;23.192;2022-10-29T01:17:12;93438.03;;;5.48;79.99
64602;BME280;51013;42.630;23.192;2022-10-29T01:22:32;93421.44;;;5.39;80.44
64602;BME280;51013;42.630;23.192;2022-10-29T01:25:06;93416.78;;;5.36;80.01
64602;BME280;51013;42.630;23.192;2022-10-29T01:27:42;93418.56;;;5.40;79.96
64602;BME280;51013;42.630;23.192;2022-10-29T01:30:18;93413.13;;;5.37;79.99
64602;BME280;51013;42.630;23.192;2022-10-29T01:32:52;93414.22;;;5.31;79.85
64602;BME280;51013;42.630;23.192;2022-10-29T01:35:24;93413.44;;;5.30;79.75
64602;BME280;51013;42.630;23.192;2022-10-29T01:37:57;93414.28;;;5.26;79.51
64602;BME280;51013;42.630;23.192;2022-10-29T01:40:30;93415.28;;;5.30;79.76
64602;BME280;51013;42.630;23.192;2022-10-29T01:43:03;93406.50;;;5.20;80.03
64602;BME280;51013;42.630;23.192;2022-10-29T01:45:32;93414.94;;;5.12;80.74
64602;BME280;51013;42.630;23.192;2022-10-29T01:48:04;93414.66;;;5.14;80.83
64602;BME280;51013;42.630;23.192;2022-10-29T01:50:32;93412.28;;;5.17;80.65
64602;BME280;51013;42.630;23.192;2022-10-29T01:52:59;93414.41;;;5.15;80.77
64602;BME280;51013;42.630;23.192;2022-10-29T01:55:27;93408.72;;;5.08;81.08
64602;BME280;51013;42.630;23.192;2022-10-29T01:57:54;93407.38;;;5.11;80.92
64602;BME280;51013;42.630;23.192;2022-10-29T02:00:21;93406.88;;;5.09;80.98
64602;BME280;51013;42.630;23.192;2022-10-29T02:02:53;93406.13;;;5.08;81.08
64602;BME280;51013;42.630;23.192;2022-10-29T02:05:26;93401.47;;;5.05;81.00
64602;BME280;51013;42.630;23.192;2022-10-29T02:07:58;93403.06;;;5.01;80.90
64602;BME280;51013;42.630;23.192;2022-10-29T02:10:31;93411.91;;;5.00;81.16
64602;BME280;51013;42.630;23.192;2022-10-29T02:12:59;93407.78;;;4.99;81.30
64602;BME280;51013;42.630;23.192;2022-10-29T02:15:27;93407.72;;;5.04;80.74
64602;BME280;51013;42.630;23.192;2022-10-29T02:17:57;93405.19;;;4.99;81.14
64602;BME280;51013;42.630;23.192;2022-10-29T02:20:24;93402.84;;;4.97;81.08
64602;BME280;51013;42.630;23.192;2022-10-29T02:22:52;93296.47;;;4.27;80.69
64602;BME280;51013;42.630;23.192;2022-10-29T02:25:18;93392.75;;;4.91;80.78
64602;BME280;51013;42.630;23.192;2022-10-29T02:27:45;93382.59;;;4.89;81.11
64602;BME280;51013;42.630;23.192;2022-10-29T02:30:12;93387.53;;;4.91;80.86
64602;BME280;51013;42.630;23.192;2022-10-29T02:32:38;93388.09;;;4.88;81.02
64602;BME280;51013;42.630;23.192;2022-10-29T02:35:05;93382.94;;;4.82;81.06
64602;BME280;51013;42.630;23.192;2022-10-29T02:37:32;93379.28;;;4.84;81.20
64602;BME280;51013;42.630;23.192;2022-10-29T02:40:02;93377.75;;;4.77;80.82
64602;BME280;51013;42.630;23.192;2022-10-29T02:42:28;93379.81;;;4.80;81.17
64602;BME280;51013;42.630;23.192;2022-10-29T02:44:55;93379.28;;;4.84;81.04
64602;BME280;51013;42.630;23.192;2022-10-29T02:47:22;93377.53;;;4.74;81.13
64602;BME280;51013;42.630;23.192;2022-10-29T02:49:48;93371.31;;;4.70;81.22
64602;BME280;51013;42.630;23.192;2022-10-29T02:52:15;93380.22;;;4.64;81.65
64602;BME280;51013;42.630;23.192;2022-10-29T02:54:42;93372.09;;;4.70;81.81
64602;BME280;51013;42.630;23.192;2022-10-29T02:57:10;93373.41;;;4.68;81.40
64602;BME280;51013;42.630;23.192;2022-10-29T02:59:36;93380.19;;;4.69;81.16
64602;BME280;51013;42.630;23.192;2022-10-29T03:02:03;93376.75;;;4.73;81.07
64602;BME280;51013;42.630;23.192;2022-10-29T03:04:30;93374.19;;;4.68;81.07
64602;BME280;51013;42.630;23.192;2022-10-29T03:06:56;93379.69;;;4.67;81.24
64602;BME280;51013;42.630;23.192;2022-10-29T03:09:23;93369.56;;;4.60;80.95
64602;BME280;51013;42.630;23.192;2022-10-29T03:11:49;93378.94;;;4.61;81.12
64602;BME280;51013;42.630;23.192;2022-10-29T03:14:17;93375.28;;;4.62;80.81
64602;BME280;51013;42.630;23.192;2022-10-29T03:16:44;93380.50;;;4.62;80.79
64602;BME280;51013;42.630;23.192;2022-10-29T03:19:11;93377.94;;;4.57;80.99
64602;BME280;51013;42.630;23.192;2022-10-29T03:21:37;93374.34;;;4.53;81.14
64602;BME280;51013;42.630;23.192;2022-10-29T03:24:04;93366.06;;;4.46;81.38
64602;BME280;51013;42.630;23.192;2022-10-29T03:26:31;93368.94;;;4.44;81.48
64602;BME280;51013;42.630;23.192;2022-10-29T03:28:57;93366.88;;;4.41;81.82
64602;BME280;51013;42.630;23.192;2022-10-29T03:31:26;93371.56;;;4.39;81.41
64602;BME280;51013;42.630;23.192;2022-10-29T03:33:52;93368.97;;;4.39;81.25
64602;BME280;51013;42.630;23.192;2022-10-29T03:36:19;93364.84;;;4.38;81.29
64602;BME280;51013;42.630;23.192;2022-10-29T03:38:45;93366.13;;;4.35;81.38
64602;BME280;51013;42.630;23.192;2022-10-29T03:41:12;93366.09;;;4.40;81.40
64602;BME280;51013;42.630;23.192;2022-10-29T03:43:39;93368.94;;;4.44;81.40
64602;BME280;51013;42.630;23.192;2022-10-29T03:46:05;93360.66;;;4.37;81.09
64602;BME280;51013;42.630;23.192;2022-10-29T03:48:33;93359.91;;;4.36;81.18
64602;BME280;51013;42.630;23.192;2022-10-29T03:51:00;93360.16;;;4.35;81.16
64602;BME280;51013;42.630;23.192;2022-10-29T03:53:30;93357.81;;;4.33;81.36
64602;BME280;51013;42.630;23.192;2022-10-29T03:55:56;93357.09;;;4.28;81.45
64602;BME280;51013;42.630;23.192;2022-10-29T03:58:23;93362.88;;;4.19;81.64
64602;BME280;51013;42.630;23.192;2022-10-29T04:00:54;93361.31;;;4.18;81.70
64602;BME280;51013;42.630;23.192;2022-10-29T04:03:20;93358.22;;;4.16;81.73
64602;BME280;51013;42.630;23.192;2022-10-29T04:05:48;93356.69;;;4.10;81.94
64602;BME280;51013;42.630;23.192;2022-10-29T04:08:15;93359.25;;;4.15;81.95
64602;BME280;51013;42.630;23.192;2022-10-29T04:10:43;93366.53;;;4.18;81.71
64602;BME280;51013;42.630;23.192;2022-10-29T04:13:10;93366.53;;;4.18;81.53
64602;BME280;51013;42.630;23.192;2022-10-29T04:15:37;93367.53;;;4.22;81.15
64602;BME280;51013;42.630;23.192;2022-10-29T04:18:03;93371.50;;;4.15;81.42
64602;BME280;51013;42.630;23.192;2022-10-29T04:20:30;93369.16;;;4.13;81.21
64602;BME280;51013;42.630;23.192;2022-10-29T04:22:58;93375.16;;;4.14;81.27
64602;BME280;51013;42.630;23.192;2022-10-29T04:25:25;93368.13;;;4.09;81.55
64602;BME280;51013;42.630;23.192;2022-10-29T04:27:52;93371.56;;;4.05;81.73
64602;BME280;51013;42.630;23.192;2022-10-29T04:30:19;93374.72;;;4.01;82.08
64602;BME280;51013;42.630;23.192;2022-10-29T04:32:46;93374.22;;;3.99;81.99
64602;BME280;51013;42.630;23.192;2022-10-29T04:35:12;93376.50;;;4.01;82.29
64602;BME280;51013;42.630;23.192;2022-10-29T04:37:39;93380.44;;;3.98;82.21
64602;BME280;51013;42.630;23.192;2022-10-29T04:40:08;93375.25;;;3.98;82.42
64602;BME280;51013;42.630;23.192;2022-10-29T04:42:35;93377.91;;;3.88;82.37
64602;BME280;51013;42.630;23.192;2022-10-29T04:45:02;93375.53;;;3.92;82.40
64602;BME280;51013;42.630;23.192;2022-10-29T04:47:28;93383.06;;;3.93;82.50
64602;BME280;51013;42.630;23.192;2022-10-29T04:49:55;93376.56;;;3.91;82.60
64602;BME280;51013;42.630;23.192;2022-10-29T04:52:22;93378.91;;;3.92;82.38
64602;BME280;51013;42.630;23.192;2022-10-29T04:54:48;93383.59;;;3.95;82.23
64602;BME280;51013;42.630;23.192;2022-10-29T04:57:17;93375.00;;;3.95;82.15
64602;BME280;51013;42.630;23.192;2022-10-29T04:59:43;93377.34;;;3.91;82.48
64602;BME280;51013;42.630;23.192;2022-10-29T05:02:10;93388.56;;;3.87;82.26
64602;BME280;51013;42.630;23.192;2022-10-29T05:04:36;93382.09;;;3.84;82.35
64602;BME280;51013;42.630;23.192;2022-10-29T05:07:03;93376.84;;;3.89;82.57
64602;BME280;51013;42.630;23.192;2022-10-29T05:09:30;93381.75;;;3.96;82.32
64602;BME280;51013;42.630;23.192;2022-10-29T05:11:56;93381.22;;;3.99;82.39
64602;BME280;51013;42.630;23.192;2022-10-29T05:14:24;93382.78;;;3.95;82.49
64602;BME280;51013;42.630;23.192;2022-10-29T05:16:51;93382.28;;;3.98;82.77
64602;BME280;51013;42.630;23.192;2022-10-29T05:19:17;93378.66;;;3.94;82.54
64602;BME280;51013;42.630;23.192;2022-10-29T05:21:44;93379.94;;;3.91;82.94
64602;BME280;51013;42.630;23.192;2022-10-29T05:24:11;93380.75;;;3.87;83.01
64602;BME280;51013;42.630;23.192;2022-10-29T05:26:37;93384.69;;;3.84;83.08
64602;BME280;51013;42.630;23.192;2022-10-29T05:29:04;93378.72;;;3.84;83.38
64602;BME280;51013;42.630;23.192;2022-10-29T05:31:32;93382.31;;;3.88;83.62
64602;BME280;51013;42.630;23.192;2022-10-29T05:33:59;93386.19;;;3.95;83.64
64602;BME280;51013;42.630;23.192;2022-10-29T05:36:25;93384.09;;;3.97;83.59
64602;BME280;51013;42.630;23.192;2022-10-29T05:38:52;93391.59;;;3.99;83.85
64602;BME280;51013;42.630;23.192;2022-10-29T05:41:19;93390.84;;;3.98;83.81
64602;BME280;51013;42.630;23.192;2022-10-29T05:43:47;93390.84;;;3.98;83.60
64602;BME280;51013;42.630;23.192;2022-10-29T05:46:13;93392.91;;;4.01;83.97
64602;BME280;51013;42.630;23.192;2022-10-29T05:48:43;93393.38;;;4.09;84.18
64602;BME280;51013;42.630;23.192;2022-10-29T05:51:09;93399.91;;;4.06;84.22
64602;BME280;51013;42.630;23.192;2022-10-29T05:53:36;93398.84;;;4.07;84.09
64602;BME280;51013;42.630;23.192;2022-10-29T05:56:03;93401.69;;;4.11;84.25
64602;BME280;51013;42.630;23.192;2022-10-29T05:58:30;93400.91;;;4.10;83.90
64602;BME280;51013;42.630;23.192;2022-10-29T06:00:56;93398.84;;;4.07;84.14
64602;BME280;51013;42.630;23.192;2022-10-29T06:03:23;93397.75;;;4.13;84.38
64602;BME280;51013;42.630;23.192;2022-10-29T06:05:51;93396.69;;;4.19;84.90
64602;BME280;51013;42.630;23.192;2022-10-29T06:08:18;93397.47;;;4.20;84.62
64602;BME280;51013;42.630;23.192;2022-10-29T06:10:45;93404.19;;;4.26;85.41
64602;BME280;51013;42.630;23.192;2022-10-29T06:13:15;93405.72;;;4.32;86.00
64602;BME280;51013;42.630;23.192;2022-10-29T06:15:43;93342.03;;;3.85;85.91
64602;BME280;51013;42.630;23.192;2022-10-29T06:18:10;93404.13;;;4.36;86.48
64602;BME280;51013;42.630;23.192;2022-10-29T06:20:37;93406.16;;;4.45;86.24
64602;BME280;51013;42.630;23.192;2022-10-29T06:23:06;93410.00;;;4.52;86.13
64602;BME280;51013;42.630;23.192;2022-10-29T06:25:33;93413.78;;;4.65;86.04
64602;BME280;51013;42.630;23.192;2022-10-29T06:27:59;93410.38;;;4.70;86.34
64602;BME280;51013;42.630;23.192;2022-10-29T06:30:27;93414.94;;;4.83;87.23
64602;BME280;51013;42.630;23.192;2022-10-29T06:32:54;93408.41;;;4.86;87.28
64602;BME280;51013;42.630;23.192;2022-10-29T06:35:21;93411.69;;;4.96;87.72
64602;BME280;51013;42.630;23.192;2022-10-29T06:37:48;93403.00;;;5.06;87.51
64602;BME280;51013;42.630;23.192;2022-10-29T06:40:17;93411.22;;;5.18;86.94
64602;BME280;51013;42.630;23.192;2022-10-29T06:42:44;93400.44;;;5.30;85.34
64602;BME280;51013;42.630;23.192;2022-10-29T06:45:11;93402.88;;;5.46;84.59
64602;BME280;51013;42.630;23.192;2022-10-29T06:47:38;93396.75;;;5.55;83.78
64602;BME280;51013;42.630;23.192;2022-10-29T06:50:05;93401.28;;;5.69;82.42
64602;BME280;51013;42.630;23.192;2022-10-29T06:52:32;93403.78;;;5.79;82.45
64602;BME280;51013;42.630;23.192;2022-10-29T06:54:59;93394.47;;;5.92;82.99
64602;BME280;51013;42.630;23.192;2022-10-29T06:57:29;93396.69;;;6.04;82.46
64602;BME280;51013;42.630;23.192;2022-10-29T06:59:57;93400.16;;;6.18;83.26
64602;BME280;51013;42.630;23.192;2022-10-29T07:02:24;93395.00;;;6.32;83.50
64602;BME280;51013;42.630;23.192;2022-10-29T07:04:51;93396.53;;;6.52;87.38
64602;BME280;51013;42.630;23.192;2022-10-29T07:07:21;93398.09;;;6.86;88.29
64602;BME280;51013;42.630;23.192;2022-10-29T07:09:49;93390.50;;;7.17;86.91
64602;BME280;51013;42.630;23.192;2022-10-29T07:12:16;93392.34;;;7.58;84.96
64602;BME280;51013;42.630;23.192;2022-10-29T07:14:44;93393.28;;;7.90;83.10
64602;BME280;51013;42.630;23.192;2022-10-29T07:17:10;93399.44;;;8.21;81.98
64602;BME280;51013;42.630;23.192;2022-10-29T07:19:37;93404.03;;;8.38;79.63
64602;BME280;51013;42.630;23.192;2022-10-29T07:22:04;93403.53;;;8.50;79.81
64602;BME280;51013;42.630;23.192;2022-10-29T07:24:31;93408.84;;;8.59;80.45
64602;BME280;51013;42.630;23.192;2022-10-29T07:26:58;93403.97;;;8.66;80.25
64602;BME280;51013;42.630;23.192;2022-10-29T07:29:26;93409.91;;;8.80;80.12
64602;BME280;51013;42.630;23.192;2022-10-29T07:31:54;93417.81;;;8.89;80.26
64602;BME280;51013;42.630;23.192;2022-10-29T07:34:21;93416.19;;;9.02;79.32
64602;BME280;51013;42.630;23.192;2022-10-29T07:36:47;93409.09;;;9.25;80.31
64602;BME280;51013;42.630;23.192;2022-10-29T07:39:17;93405.28;;;9.40;79.25
64602;BME280;51013;42.630;23.192;2022-10-29T07:41:48;93399.00;;;9.50;79.15
64602;BME280;51013;42.630;23.192;2022-10-29T07:44:19;93398.72;;;9.60;80.02
64602;BME280;51013;42.630;23.192;2022-10-29T07:46:47;93400.47;;;9.73;80.80
64602;BME280;51013;42.630;23.192;2022-10-29T07:49:17;93395.41;;;9.86;79.44
64602;BME280;51013;42.630;23.192;2022-10-29T07:51:47;93388.94;;;10.09;79.98
64602;BME280;51013;42.630;23.192;2022-10-29T07:54:16;93390.38;;;10.24;80.70
64602;BME280;51013;42.630;23.192;2022-10-29T07:56:42;93389.63;;;10.41;79.78
64602;BME280;51013;42.630;23.192;2022-10-29T07:59:13;93390.09;;;10.60;80.01
64602;BME280;51013;42.630;23.192;2022-10-29T08:01:43;93388.03;;;10.92;78.89
64602;BME280;51013;42.630;23.192;2022-10-29T08:04:11;93392.03;;;11.07;78.33
64602;BME280;51013;42.630;23.192;2022-10-29T08:06:39;93384.88;;;11.16;77.63
64602;BME280;51013;42.630;23.192;2022-10-29T08:09:06;93389.19;;;11.30;77.10
64602;BME280;51013;42.630;23.192;2022-10-29T08:11:32;93387.84;;;11.53;76.30
64602;BME280;51013;42.630;23.192;2022-10-29T08:13:59;93384.53;;;11.65;75.28
64602;BME280;51013;42.630;23.192;2022-10-29T08:16:26;93380.28;;;11.81;74.68
64602;BME280;51013;42.630;23.192;2022-10-29T08:18:52;93377.72;;;12.02;73.41
64602;BME280;51013;42.630;23.192;2022-10-29T08:21:19;93379.84;;;12.09;73.35
64602;BME280;51013;42.630;23.192;2022-10-29T08:23:47;93379.25;;;12.25;73.41
64602;BME280;51013;42.630;23.192;2022-10-29T08:26:15;93377.66;;;12.32;72.83
64602;BME280;51013;42.630;23.192;2022-10-29T08:28:41;93379.47;;;12.40;72.36
64602;BME280;51013;42.630;23.192;2022-10-29T08:31:08;93380.94;;;12.50;71.74
64602;BME280;51013;42.630;23.192;2022-10-29T08:33:35;93365.31;;;12.66;70.66
64602;BME280;51013;42.630;23.192;2022-10-29T08:36:02;93373.69;;;12.80;69.74
64602;BME280;51013;42.630;23.192;2022-10-29T08:38:28;93380.63;;;12.85;69.79
64602;BME280;51013;42.630;23.192;2022-10-29T08:41:05;93376.94;;;12.98;69.56
64602;BME280;51013;42.630;23.192;2022-10-29T08:43:42;93377.53;;;13.16;69.13
64602;BME280;51013;42.630;23.192;2022-10-29T08:46:17;93377.28;;;13.30;68.47
64602;BME280;51013;42.630;23.192;2022-10-29T08:48:46;93378.16;;;13.47;68.10
64602;BME280;51013;42.630;23.192;2022-10-29T08:51:18;93372.13;;;13.58;67.36
64602;BME280;51013;42.630;23.192;2022-10-29T08:53:47;93370.69;;;13.73;67.95
64602;BME280;51013;42.630;23.192;2022-10-29T08:56:17;93366.16;;;13.86;65.79
64602;BME280;51013;42.630;23.192;2022-10-29T08:58:49;93371.31;;;13.95;65.96
64602;BME280;51013;42.630;23.192;2022-10-29T09:01:19;93364.28;;;14.11;64.47
64602;BME280;51013;42.630;23.192;2022-10-29T09:03:46;93361.66;;;14.11;64.69
64602;BME280;51013;42.630;23.192;2022-10-29T09:06:13;93359.97;;;14.19;64.18
64602;BME280;51013;42.630;23.192;2022-10-29T09:08:51;93354.19;;;14.29;63.87
64602;BME280;51013;42.630;23.192;2022-10-29T09:14:10;93360.66;;;14.56;63.06
64602;BME280;51013;42.630;23.192;2022-10-29T09:16:44;93357.44;;;14.63;63.38
64602;BME280;51013;42.630;23.192;2022-10-29T09:19:18;93352.97;;;14.79;62.35
64602;BME280;51013;42.630;23.192;2022-10-29T09:21:50;93348.75;;;14.91;61.51
64602;BME280;51013;42.630;23.192;2022-10-29T09:24:23;93351.13;;;14.96;63.04
64602;BME280;51013;42.630;23.192;2022-10-29T09:26:54;93355.59;;;15.08;61.25
64602;BME280;51013;42.630;23.192;2022-10-29T09:29:26;93348.94;;;15.14;61.21
64602;BME280;51013;42.630;23.192;2022-10-29T09:31:56;93344.75;;;15.29;60.70
64602;BME280;51013;42.630;23.192;2022-10-29T09:34:26;93349.91;;;15.37;60.68
64602;BME280;51013;42.630;23.192;2022-10-29T09:36:54;93344.09;;;15.48;60.01
64602;BME280;51013;42.630;23.192;2022-10-29T09:39:23;93348.16;;;15.61;61.46
64602;BME280;51013;42.630;23.192;2022-10-29T09:41:53;93340.94;;;15.74;60.08
64602;BME280;51013;42.630;23.192;2022-10-29T09:44:23;93347.22;;;15.85;59.78
64602;BME280;51013;42.630;23.192;2022-10-29T09:46:57;93347.06;;;15.94;58.86
64602;BME280;51013;42.630;23.192;2022-10-29T09:49:33;93345.81;;;16.07;58.56
64602;BME280;51013;42.630;23.192;2022-10-29T09:52:03;93333.16;;;16.16;58.21
64602;BME280;51013;42.630;23.192;2022-10-29T09:54:32;93338.88;;;16.18;56.66
64602;BME280;51013;42.630;23.192;2022-10-29T09:56:59;93334.06;;;16.24;56.78
64602;BME280;51013;42.630;23.192;2022-10-29T09:59:27;93333.44;;;16.31;57.45
64602;BME280;51013;42.630;23.192;2022-10-29T10:01:57;93324.78;;;16.34;56.36
64602;BME280;51013;42.630;23.192;2022-10-29T10:04:25;93326.84;;;16.40;57.48
64602;BME280;51013;42.630;23.192;2022-10-29T10:07:00;93327.16;;;16.58;56.42
64602;BME280;51013;42.630;23.192;2022-10-29T10:09:27;93324.44;;;16.74;56.30
64602;BME280;51013;42.630;23.192;2022-10-29T10:11:54;93312.84;;;16.82;55.65
64602;BME280;51013;42.630;23.192;2022-10-29T10:14:23;93315.50;;;16.82;54.25
64602;BME280;51013;42.630;23.192;2022-10-29T10:16:55;93319.13;;;16.94;53.86
64602;BME280;51013;42.630;23.192;2022-10-29T10:19:25;93302.44;;;16.93;54.56
64602;BME280;51013;42.630;23.192;2022-10-29T10:21:55;93302.34;;;17.09;53.91
64602;BME280;51013;42.630;23.192;2022-10-29T10:24:28;93296.91;;;17.25;53.95
64602;BME280;51013;42.630;23.192;2022-10-29T10:26:55;93300.84;;;17.35;53.19
64602;BME280;51013;42.630;23.192;2022-10-29T10:29:22;93293.44;;;17.48;53.69
64602;BME280;51013;42.630;23.192;2022-10-29T10:34:36;93285.31;;;17.60;52.42
64602;BME280;51013;42.630;23.192;2022-10-29T10:37:06;93279.28;;;17.63;50.89
64602;BME280;51013;42.630;23.192;2022-10-29T10:39:37;93281.31;;;17.73;51.32
64602;BME280;51013;42.630;23.192;2022-10-29T10:42:05;93275.88;;;17.89;52.08
64602;BME280;51013;42.630;23.192;2022-10-29T10:44:32;93274.09;;;17.97;49.86
64602;BME280;51013;42.630;23.192;2022-10-29T10:47:03;93263.91;;;18.02;49.95
64602;BME280;51013;42.630;23.192;2022-10-29T10:49:32;93263.28;;;18.16;50.72
64602;BME280;51013;42.630;23.192;2022-10-29T10:52:04;93264.16;;;18.24;48.23
64602;BME280;51013;42.630;23.192;2022-10-29T10:54:32;93259.75;;;18.35;49.31
64602;BME280;51013;42.630;23.192;2022-10-29T10:57:01;93254.09;;;18.40;48.34
64602;BME280;51013;42.630;23.192;2022-10-29T10:59:33;93247.41;;;18.54;48.46
64602;BME280;51013;42.630;23.192;2022-10-29T11:02:01;93252.75;;;18.57;47.58
64602;BME280;51013;42.630;23.192;2022-10-29T11:04:30;93248.66;;;18.64;47.31
64602;BME280;51013;42.630;23.192;2022-10-29T11:06:59;93246.88;;;18.78;47.53
64602;BME280;51013;42.630;23.192;2022-10-29T11:09:31;93247.41;;;18.91;46.60
64602;BME280;51013;42.630;23.192;2022-10-29T11:11:59;93238.22;;;18.85;46.21
64602;BME280;51013;42.630;23.192;2022-10-29T11:14:31;93238.22;;;18.85;47.73
64602;BME280;51013;42.630;23.192;2022-10-29T11:17:01;93234.22;;;19.06;46.40
64602;BME280;51013;42.630;23.192;2022-10-29T11:19:30;93235.81;;;19.14;45.23
64602;BME280;51013;42.630;23.192;2022-10-29T11:22:02;93226.72;;;19.18;43.92
64602;BME280;51013;42.630;23.192;2022-10-29T11:24:34;93215.31;;;19.21;44.18
64602;BME280;51013;42.630;23.192;2022-10-29T11:27:03;93216.59;;;19.42;43.75
64602;BME280;51013;42.630;23.192;2022-10-29T11:29:36;93206.03;;;19.56;43.94
64602;BME280;51013;42.630;23.192;2022-10-29T11:32:06;93209.50;;;19.64;43.40
64602;BME280;51013;42.630;23.192;2022-10-29T11:34:38;93201.50;;;19.64;43.20
64602;BME280;51013;42.630;23.192;2022-10-29T11:37:11;93197.72;;;19.69;43.40
64602;BME280;51013;42.630;23.192;2022-10-29T11:39:44;93197.78;;;19.72;42.63
64602;BME280;51013;42.630;23.192;2022-10-29T11:42:11;93193.63;;;19.75;42.90
64602;BME280;51013;42.630;23.192;2022-10-29T11:44:38;93196.75;;;19.95;42.46
64602;BME280;51013;42.630;23.192;2022-10-29T11:47:09;93191.44;;;19.98;41.98
64602;BME280;51013;42.630;23.192;2022-10-29T11:49:42;93186.53;;;20.11;40.26
64602;BME280;51013;42.630;23.192;2022-10-29T11:52:11;93180.88;;;20.24;41.47
64602;BME280;51013;42.630;23.192;2022-10-29T11:54:42;93183.16;;;20.29;41.15
64602;BME280;51013;42.630;23.192;2022-10-29T11:57:13;93184.34;;;20.46;40.76
64602;BME280;51013;42.630;23.192;2022-10-29T11:59:43;93183.22;;;20.57;39.58
64602;BME280;51013;42.630;23.192;2022-10-29T12:02:21;93182.50;;;20.68;39.56
64602;BME280;51013;42.630;23.192;2022-10-29T12:04:52;93182.13;;;20.66;39.74
64602;BME280;51013;42.630;23.192;2022-10-29T12:07:25;93176.78;;;20.80;40.36
64602;BME280;51013;42.630;23.192;2022-10-29T12:12:41;93174.91;;;20.95;38.76
64602;BME280;51013;42.630;23.192;2022-10-29T12:15:12;93177.56;;;20.84;38.56
64602;BME280;51013;42.630;23.192;2022-10-29T12:17:44;93168.78;;;20.94;39.04
64602;BME280;51013;42.630;23.192;2022-10-29T12:20:14;93170.72;;;20.87;38.08
64602;BME280;51013;42.630;23.192;2022-10-29T12:22:43;93167.66;;;20.81;38.21
64602;BME280;51013;42.630;23.192;2022-10-29T12:25:16;93165.38;;;21.01;39.04
64602;BME280;51013;42.630;23.192;2022-10-29T12:27:51;93166.50;;;21.14;37.81
64602;BME280;51013;42.630;23.192;2022-10-29T12:30:22;93163.81;;;21.36;37.53
64602;BME280;51013;42.630;23.192;2022-10-29T12:32:51;93154.28;;;21.49;37.00
64602;BME280;51013;42.630;23.192;2022-10-29T12:35:21;93150.44;;;21.54;35.78
64602;BME280;51013;42.630;23.192;2022-10-29T12:37:54;93154.25;;;21.60;35.54
64602;BME280;51013;42.630;23.192;2022-10-29T12:40:24;93143.97;;;21.48;35.56
64602;BME280;51013;42.630;23.192;2022-10-29T12:42:53;93147.38;;;21.63;35.06
64602;BME280;51013;42.630;23.192;2022-10-29T12:45:23;93140.78;;;21.81;33.00
64602;BME280;51013;42.630;23.192;2022-10-29T12:47:53;93143.03;;;22.01;33.53
64602;BME280;51013;42.630;23.192;2022-10-29T12:50:25;93131.06;;;22.20;33.05
64602;BME280;51013;42.630;23.192;2022-10-29T12:53:01;93133.00;;;22.27;32.91
64602;BME280;51013;42.630;23.192;2022-10-29T12:55:29;93134.78;;;22.44;32.06
64602;BME280;51013;42.630;23.192;2022-10-29T12:58:00;93126.72;;;22.55;31.96
64602;BME280;51013;42.630;23.192;2022-10-29T13:00:46;93124.03;;;22.55;31.12
64602;BME280;51013;42.630;23.192;2022-10-29T13:05:59;93122.75;;;22.70;30.71
64602;BME280;51013;42.630;23.192;2022-10-29T13:08:53;93128.78;;;22.85;31.44
64602;BME280;51013;42.630;23.192;2022-10-29T13:11:21;93125.34;;;22.85;30.83
64602;BME280;51013;42.630;23.192;2022-10-29T13:13:52;93119.44;;;23.08;32.04
64602;BME280;51013;42.630;23.192;2022-10-29T13:16:26;93122.34;;;22.79;30.36